Time;durP1;ratioP1;P1;durP2;ratioP2;P2;SDS_P1;SDS_P2;PMS_P1;PMS_P2;Temp;Humidity;BMP_temperature;BMP_pressure;BME280_temperature;BME280_humidity;BME280_pressure;Samples;Min_cycle;Max_cycle;Signal;HPM_P1;HPM_P2
2021/12/21 00:00:17;;;;;;;0.30;0.30;;;-0.10;92.90;;;;;;5073741;28;20428;-68
2021/12/21 00:02:45;;;;;;;0.40;0.40;;;-0.20;92.70;;;;;;5073713;28;20427;-68
2021/12/21 00:05:17;;;;;;;0.40;0.40;;;-0.30;92.30;;;;;;5073708;28;20694;-68
2021/12/21 00:07:44;;;;;;;0.45;0.45;;;-0.40;92.40;;;;;;5074016;28;20502;-67
2021/12/21 00:10:11;;;;;;;0.40;0.40;;;-0.60;92.90;;;;;;5073637;28;20173;-68
2021/12/21 00:12:40;;;;;;;0.30;0.30;;;-0.60;93.00;;;;;;5073579;28;20185;-68
2021/12/21 00:15:19;;;;;;;0.40;0.40;;;-0.60;93.20;;;;;;5073738;28;20168;-68
2021/12/21 00:18:00;;;;;;;0.32;0.32;;;-0.60;93.20;;;;;;5073804;28;20165;-68
2021/12/21 00:20:44;;;;;;;0.40;0.40;;;-0.60;93.30;;;;;;5072396;28;20170;-68
2021/12/21 00:25:54;;;;;;;0.40;0.40;;;-0.40;92.90;;;;;;5073531;28;20172;-68
2021/12/21 00:28:19;;;;;;;0.50;0.50;;;-0.40;92.40;;;;;;5073266;28;20252;-68
2021/12/21 00:30:45;;;;;;;0.40;0.40;;;-0.80;92.90;;;;;;5073524;28;20582;-68
2021/12/21 00:33:10;;;;;;;0.40;0.40;;;-0.80;93.40;;;;;;5073372;28;20212;-67
2021/12/21 00:35:36;;;;;;;0.40;0.40;;;-0.80;93.60;;;;;;5073538;28;20169;-68
2021/12/21 00:38:04;;;;;;;0.40;0.40;;;-0.90;93.70;;;;;;5073460;28;20211;-68
2021/12/21 00:40:31;;;;;;;0.40;0.40;;;-0.80;94.00;;;;;;5073519;28;20170;-68
2021/12/21 00:42:57;;;;;;;0.30;0.30;;;-0.70;93.70;;;;;;5073262;28;20553;-68
2021/12/21 00:45:24;;;;;;;0.30;0.30;;;-0.60;93.50;;;;;;5073576;28;20608;-68
2021/12/21 00:47:50;;;;;;;0.40;0.40;;;-0.50;93.10;;;;;;5073687;28;20532;-68
2021/12/21 00:50:20;;;;;;;0.40;0.40;;;-0.80;93.50;;;;;;5073307;28;20169;-67
2021/12/21 00:52:52;;;;;;;0.40;0.40;;;-0.90;93.80;;;;;;5073338;28;20291;-67
2021/12/21 00:55:20;;;;;;;0.30;0.30;;;-0.80;94.00;;;;;;5073244;28;20154;-68
2021/12/21 00:57:46;;;;;;;0.40;0.40;;;-0.90;93.80;;;;;;5073442;28;20253;-68
2021/12/21 01:00:14;;;;;;;0.40;0.40;;;-0.70;93.80;;;;;;5073030;28;20609;-68
2021/12/21 01:02:41;;;;;;;0.40;0.40;;;-0.50;93.60;;;;;;5073267;28;20240;-68
2021/12/21 01:05:15;;;;;;;0.30;0.30;;;-0.40;93.40;;;;;;5073163;28;20570;-68
2021/12/21 01:07:45;;;;;;;0.40;0.40;;;-0.40;93.50;;;;;;5073113;28;20535;-68
2021/12/21 01:13:09;;;;;;;0.40;0.40;;;-0.40;92.90;;;;;;5073284;28;20662;-68
2021/12/21 01:18:11;;;;;;;0.43;0.43;;;-0.70;93.20;;;;;;5073084;28;20174;-68
2021/12/21 01:20:41;;;;;;;0.40;0.40;;;-0.60;93.20;;;;;;5073001;28;20399;-68
2021/12/21 01:26:44;;;;;;;0.47;0.47;;;-0.50;93.30;;;;;;5095177;28;20169;-67
2021/12/21 01:29:23;;;;;;;0.30;0.30;;;-0.70;93.10;;;;;;5094198;28;20655;-67
2021/12/21 01:42:19;;;;;;;0.30;0.30;;;-0.60;92.50;;;;;;5077125;28;20192;-68
2021/12/21 01:50:15;;;;;;;0.40;0.40;;;-1.10;93.80;;;;;;5076338;28;20215;-68
2021/12/21 01:52:41;;;;;;;0.40;0.40;;;-1.20;94.20;;;;;;5076469;28;20185;-67
2021/12/21 01:55:07;;;;;;;0.40;0.40;;;-0.90;94.20;;;;;;5076299;28;20162;-68
2021/12/21 01:57:32;;;;;;;0.30;0.30;;;-0.80;93.50;;;;;;5076426;28;20585;-68
2021/12/21 01:59:58;;;;;;;0.40;0.40;;;-0.80;92.90;;;;;;5075840;28;20864;-68
2021/12/21 02:02:24;;;;;;;0.40;0.40;;;-0.70;92.90;;;;;;5076047;28;20422;-68
2021/12/21 02:04:50;;;;;;;0.40;0.40;;;-0.90;92.80;;;;;;5076314;28;20194;-68
2021/12/21 02:07:15;;;;;;;0.40;0.40;;;-0.90;93.00;;;;;;5076166;28;20165;-68
2021/12/21 02:09:41;;;;;;;0.40;0.40;;;-0.90;92.60;;;;;;5076019;28;20165;-68
2021/12/21 02:12:10;;;;;;;0.43;0.43;;;-0.80;92.60;;;;;;5076013;28;20917;-67
2021/12/21 02:14:37;;;;;;;0.40;0.40;;;-0.80;92.50;;;;;;5075868;28;20443;-68
2021/12/21 02:20:18;;;;;;;0.40;0.40;;;-0.90;92.50;;;;;;5075680;28;20691;-68
2021/12/21 02:22:51;;;;;;;0.40;0.40;;;-1.00;92.50;;;;;;5075710;28;20193;-68
2021/12/21 02:28:10;;;;;;;0.40;0.40;;;-1.10;92.50;;;;;;5075736;28;20204;-68
2021/12/21 02:30:38;;;;;;;0.40;0.40;;;-1.20;92.60;;;;;;5075822;28;20172;-68
2021/12/21 02:33:03;;;;;;;0.57;0.57;;;-1.10;92.80;;;;;;5075562;28;20197;-67
2021/12/21 02:35:30;;;;;;;0.30;0.30;;;-1.10;92.80;;;;;;5074391;28;20185;-68
2021/12/21 02:37:55;;;;;;;0.45;0.45;;;-1.00;93.10;;;;;;5075305;28;20174;-68
2021/12/21 02:40:21;;;;;;;0.50;0.50;;;-1.10;92.40;;;;;;5075507;28;20176;-68
2021/12/21 02:42:47;;;;;;;0.40;0.40;;;-1.00;92.30;;;;;;5075218;28;20198;-68
2021/12/21 02:45:12;;;;;;;0.40;0.40;;;-1.00;92.20;;;;;;5075342;28;20170;-67
2021/12/21 02:47:39;;;;;;;0.40;0.40;;;-1.00;92.30;;;;;;5074140;28;20166;-68
2021/12/21 02:50:05;;;;;;;0.38;0.38;;;-1.00;92.30;;;;;;5075113;28;20561;-67
2021/12/21 02:52:33;;;;;;;0.50;0.50;;;-1.00;92.30;;;;;;5073859;28;20209;-68
2021/12/21 02:54:59;;;;;;;0.40;0.40;;;-1.00;92.40;;;;;;5075166;28;20219;-68
2021/12/21 02:57:25;;;;;;;0.40;0.40;;;-1.10;92.40;;;;;;5075305;28;20177;-68
2021/12/21 02:59:51;;;;;;;0.50;0.50;;;-1.10;92.40;;;;;;5074806;28;20269;-68
2021/12/21 03:02:17;;;;;;;0.67;0.67;;;-1.10;92.40;;;;;;5075115;28;20239;-68
2021/12/21 03:04:44;;;;;;;0.47;0.47;;;-1.10;92.30;;;;;;5075097;28;20284;-68
2021/12/21 03:09:55;;;;;;;0.40;0.40;;;-1.10;92.90;;;;;;5074971;28;20709;-67
2021/12/21 03:14:48;;;;;;;0.40;0.40;;;-1.10;92.80;;;;;;5074680;28;20536;-67
2021/12/21 03:17:14;;;;;;;0.40;0.40;;;-1.20;92.60;;;;;;5074910;28;20199;-67
2021/12/21 03:19:40;;;;;;;0.45;0.45;;;-1.20;92.60;;;;;;5074477;28;20670;-68
2021/12/21 03:22:07;;;;;;;0.60;0.60;;;-1.20;92.70;;;;;;5074740;28;20248;-68
2021/12/21 03:24:34;;;;;;;1.00;0.98;;;-1.20;92.70;;;;;;5074536;28;20189;-68
2021/12/21 03:27:00;;;;;;;0.50;0.50;;;-1.20;92.80;;;;;;5074677;28;20176;-68
2021/12/21 03:29:26;;;;;;;0.47;0.47;;;-1.30;92.80;;;;;;5074282;28;20170;-68
2021/12/21 03:31:52;;;;;;;0.50;0.50;;;-1.30;92.60;;;;;;5074322;28;20906;-68
2021/12/21 03:34:18;;;;;;;0.40;0.40;;;-1.30;92.60;;;;;;5074383;28;20184;-68
2021/12/21 03:36:43;;;;;;;0.60;0.60;;;-1.30;92.50;;;;;;5074372;28;20219;-68
2021/12/21 03:39:16;;;;;;;0.40;0.40;;;-1.30;92.30;;;;;;5074087;28;20585;-68
2021/12/21 03:41:46;;;;;;;0.68;0.68;;;-1.40;92.10;;;;;;5073160;28;20173;-67
2021/12/21 03:44:12;;;;;;;0.50;0.50;;;-1.40;92.20;;;;;;5074063;28;20197;-68
2021/12/21 03:46:47;;;;;;;0.50;0.50;;;-1.40;92.30;;;;;;5073837;28;20166;-67
2021/12/21 03:50:00;;;;;;;0.60;0.60;;;-1.40;92.30;;;;;;5074174;28;20530;-67
2021/12/21 03:52:12;;;;;;;0.60;0.60;;;-1.40;92.10;;;;;;5076243;28;20268;-67
2021/12/21 03:54:40;;;;;;;0.50;0.50;;;-1.50;92.10;;;;;;5073981;28;20180;-67
2021/12/21 03:57:05;;;;;;;0.40;0.40;;;-1.40;92.20;;;;;;5073967;28;20165;-68
2021/12/21 03:59:31;;;;;;;0.50;0.50;;;-1.60;91.80;;;;;;5073604;28;20570;-68
2021/12/21 04:01:57;;;;;;;0.50;0.50;;;-1.60;91.90;;;;;;5073992;28;20193;-68
2021/12/21 04:04:24;;;;;;;0.43;0.43;;;-1.60;91.90;;;;;;5073753;28;20197;-68
2021/12/21 04:06:50;;;;;;;0.50;0.50;;;-1.60;91.90;;;;;;5073879;28;20249;-68
2021/12/21 04:09:16;;;;;;;0.40;0.40;;;-1.60;91.80;;;;;;5073603;28;20691;-68
2021/12/21 04:11:42;;;;;;;0.60;0.60;;;-1.60;92.00;;;;;;5074097;28;20443;-68
2021/12/21 04:14:08;;;;;;;0.60;0.60;;;-1.60;92.00;;;;;;5073897;28;20190;-68
2021/12/21 04:16:34;;;;;;;0.40;0.40;;;-1.60;92.00;;;;;;5073834;28;20399;-67
2021/12/21 04:19:00;;;;;;;0.63;0.63;;;-1.70;91.90;;;;;;5073498;28;20197;-68
2021/12/21 04:21:26;;;;;;;0.40;0.40;;;-1.70;91.80;;;;;;5073748;28;20180;-68
2021/12/21 04:23:51;;;;;;;0.40;0.40;;;-1.90;92.20;;;;;;5073393;28;20205;-68
2021/12/21 04:26:18;;;;;;;0.40;0.40;;;-1.90;92.50;;;;;;5073989;28;20298;-67
2021/12/21 04:28:45;;;;;;;0.50;0.50;;;-1.80;92.70;;;;;;5073364;28;20169;-68
2021/12/21 04:31:11;;;;;;;0.40;0.40;;;-1.80;92.60;;;;;;5073625;28;20161;-67
2021/12/21 04:33:39;;;;;;;0.40;0.40;;;-1.80;92.60;;;;;;5073430;28;20292;-68
2021/12/21 04:36:05;;;;;;;0.30;0.30;;;-1.80;92.40;;;;;;5073371;28;20499;-68
2021/12/21 04:38:36;;;;;;;0.50;0.50;;;-1.80;92.20;;;;;;5073257;28;20205;-68
2021/12/21 04:41:16;;;;;;;1.58;1.48;;;-1.80;91.90;;;;;;5073673;28;20165;-68
2021/12/21 04:43:43;;;;;;;0.50;0.50;;;-1.80;91.60;;;;;;5073326;28;20203;-68
2021/12/21 04:46:09;;;;;;;0.50;0.50;;;-1.80;91.60;;;;;;5073519;28;20355;-67
2021/12/21 04:48:35;;;;;;;0.50;0.50;;;-1.90;91.50;;;;;;5073278;28;20599;-67
2021/12/21 04:51:01;;;;;;;0.70;0.70;;;-1.90;91.50;;;;;;5073256;28;20643;-68
2021/12/21 04:53:27;;;;;;;0.50;0.50;;;-1.90;91.50;;;;;;5073267;28;20199;-68
2021/12/21 04:55:53;;;;;;;0.50;0.50;;;-2.00;91.40;;;;;;5073338;28;20670;-68
2021/12/21 04:58:19;;;;;;;0.50;0.50;;;-2.10;91.30;;;;;;5073101;28;20420;-67
2021/12/21 05:00:46;;;;;;;0.50;0.50;;;-2.30;91.30;;;;;;5077079;28;20192;-67
2021/12/21 05:03:12;;;;;;;0.40;0.40;;;-2.30;91.60;;;;;;5077062;28;20577;-68
2021/12/21 05:05:38;;;;;;;0.40;0.40;;;-2.50;91.80;;;;;;5077245;28;20169;-68
2021/12/21 05:08:09;;;;;;;0.55;0.55;;;-2.50;92.00;;;;;;5077184;28;20162;-68
2021/12/21 05:10:44;;;;;;;0.57;0.57;;;-2.50;92.00;;;;;;5077110;28;20216;-67
2021/12/21 05:13:10;;;;;;;0.50;0.50;;;-2.40;92.00;;;;;;5077015;28;20193;-68
2021/12/21 05:15:36;;;;;;;0.57;0.57;;;-2.40;91.90;;;;;;5076951;28;20180;-68
2021/12/21 05:18:02;;;;;;;0.53;0.53;;;-2.40;91.60;;;;;;5076799;28;20244;-68
2021/12/21 05:20:27;;;;;;;0.70;0.70;;;-2.40;91.50;;;;;;5076972;28;20171;-68
2021/12/21 05:22:53;;;;;;;0.40;0.40;;;-2.40;91.40;;;;;;5076776;28;20441;-67
2021/12/21 05:25:19;;;;;;;0.60;0.60;;;-2.50;91.00;;;;;;5076929;28;20441;-68
2021/12/21 05:27:44;;;;;;;0.50;0.50;;;-2.50;91.20;;;;;;5076925;28;20170;-67
2021/12/21 05:30:11;;;;;;;0.60;0.60;;;-2.50;91.10;;;;;;5076708;28;20172;-67
2021/12/21 05:32:37;;;;;;;0.50;0.50;;;-2.70;90.90;;;;;;5076583;28;20430;-68
2021/12/21 05:35:03;;;;;;;0.60;0.60;;;-2.70;91.20;;;;;;5076663;28;20169;-68
2021/12/21 05:37:29;;;;;;;0.50;0.50;;;-2.70;91.40;;;;;;5076678;28;20404;-68
2021/12/21 05:40:09;;;;;;;0.70;0.70;;;-2.80;91.30;;;;;;5076527;28;20640;-68
2021/12/21 05:42:35;;;;;;;0.60;0.60;;;-2.80;91.40;;;;;;5076566;28;20272;-68
2021/12/21 05:45:01;;;;;;;0.50;0.50;;;-2.80;91.30;;;;;;5076557;28;20297;-67
2021/12/21 05:47:27;;;;;;;0.47;0.47;;;-2.80;91.40;;;;;;5076554;28;20404;-67
2021/12/21 05:49:52;;;;;;;0.57;0.57;;;-2.90;91.40;;;;;;5076237;28;20173;-67
2021/12/21 05:52:18;;;;;;;0.63;0.63;;;-2.90;91.30;;;;;;5076334;28;20276;-68
2021/12/21 05:54:44;;;;;;;0.50;0.50;;;-2.90;91.30;;;;;;5076265;28;20251;-67
2021/12/21 05:57:09;;;;;;;0.50;0.50;;;-2.90;91.20;;;;;;5076434;28;20174;-67
2021/12/21 05:59:35;;;;;;;0.67;0.67;;;-3.00;91.10;;;;;;5075967;28;20720;-68
2021/12/21 06:02:01;;;;;;;0.87;0.87;;;-2.90;91.00;;;;;;5076266;28;20209;-68
2021/12/21 06:04:26;;;;;;;0.50;0.50;;;-2.90;90.90;;;;;;5075992;28;20205;-67
2021/12/21 06:06:52;;;;;;;0.60;0.60;;;-2.80;90.60;;;;;;5076137;28;20792;-68
2021/12/21 06:09:19;;;;;;;0.70;0.70;;;-2.80;90.40;;;;;;5075886;28;20173;-67
2021/12/21 06:12:01;;;;;;;0.75;0.75;;;-2.80;90.20;;;;;;5075955;28;20460;-68
2021/12/21 06:25:37;;;;;;;0.55;0.55;;;-3.20;90.20;;;;;;5075928;28;20226;-68
2021/12/21 06:28:06;;;;;;;0.47;0.47;;;-3.50;90.10;;;;;;5075820;28;20186;-68
2021/12/21 06:30:32;;;;;;;0.50;0.50;;;-3.40;90.40;;;;;;5075776;28;20181;-67
2021/12/21 06:32:58;;;;;;;0.80;0.80;;;-3.20;90.40;;;;;;5075513;28;20194;-68
2021/12/21 06:35:24;;;;;;;0.80;0.80;;;-3.20;90.20;;;;;;5076007;28;20272;-68
2021/12/21 06:37:50;;;;;;;0.60;0.60;;;-3.10;89.90;;;;;;5075545;28;20225;-68
2021/12/21 06:40:16;;;;;;;0.73;0.73;;;-3.00;89.80;;;;;;5075445;28;20197;-68
2021/12/21 06:42:44;;;;;;;0.70;0.70;;;-3.10;89.20;;;;;;5075312;28;20433;-68
2021/12/21 06:45:23;;;;;;;0.70;0.70;;;-3.10;89.30;;;;;;5075291;28;20222;-67
2021/12/21 06:53:18;;;;;;;0.65;0.65;;;-2.90;89.10;;;;;;5075475;28;20205;-68
2021/12/21 06:55:43;;;;;;;0.40;0.40;;;-2.90;88.70;;;;;;5075115;28;20170;-68
2021/12/21 06:58:09;;;;;;;0.60;0.60;;;-3.00;88.30;;;;;;5074972;28;20252;-69
2021/12/21 07:00:35;;;;;;;0.50;0.50;;;-3.00;88.30;;;;;;5075113;28;20183;-68
2021/12/21 07:03:01;;;;;;;0.70;0.70;;;-3.00;88.00;;;;;;5075110;28;20189;-68
2021/12/21 07:05:27;;;;;;;0.40;0.40;;;-3.00;88.10;;;;;;5074993;28;20901;-69
2021/12/21 07:07:53;;;;;;;0.40;0.40;;;-3.00;88.00;;;;;;5074832;28;20761;-68
2021/12/21 07:10:24;;;;;;;0.60;0.60;;;-3.10;87.80;;;;;;5075013;28;20170;-69
2021/12/21 07:20:28;;;;;;;0.50;0.50;;;-3.00;87.80;;;;;;5074766;28;20383;-69
2021/12/21 07:22:55;;;;;;;0.47;0.47;;;-3.10;86.90;;;;;;5074048;28;20181;-68
2021/12/21 07:25:21;;;;;;;0.50;0.50;;;-3.00;87.10;;;;;;5074741;28;20396;-68
2021/12/21 07:27:47;;;;;;;0.43;0.43;;;-2.90;87.00;;;;;;5074829;28;20262;-69
2021/12/21 07:30:13;;;;;;;0.70;0.70;;;-3.00;86.80;;;;;;5074241;28;20256;-68
2021/12/21 07:32:39;;;;;;;0.80;0.80;;;-2.90;86.90;;;;;;5074364;28;20194;-69
2021/12/21 07:35:05;;;;;;;0.40;0.40;;;-2.90;86.70;;;;;;5074259;28;20411;-69
2021/12/21 07:37:31;;;;;;;0.50;0.50;;;-2.80;86.60;;;;;;5074222;28;20256;-69
2021/12/21 07:39:57;;;;;;;0.50;0.50;;;-2.70;86.30;;;;;;5074152;28;20253;-68
2021/12/21 07:42:23;;;;;;;0.60;0.60;;;-2.60;85.90;;;;;;5074145;28;20190;-69
2021/12/21 07:44:49;;;;;;;0.40;0.40;;;-2.60;85.90;;;;;;5072793;28;20667;-68
2021/12/21 07:47:16;;;;;;;0.40;0.40;;;-2.60;86.00;;;;;;5074248;28;20211;-68
2021/12/21 07:49:42;;;;;;;0.60;0.60;;;-2.60;85.10;;;;;;5073848;28;20227;-68
2021/12/21 07:52:09;;;;;;;0.40;0.40;;;-2.70;84.60;;;;;;5074179;28;20204;-69
2021/12/21 07:54:36;;;;;;;0.50;0.50;;;-2.70;85.30;;;;;;5074202;28;20173;-69
2021/12/21 07:57:01;;;;;;;0.50;0.50;;;-2.60;85.20;;;;;;5074066;28;20205;-69
2021/12/21 07:59:27;;;;;;;0.30;0.30;;;-2.40;85.10;;;;;;5073750;28;20224;-69
2021/12/21 08:01:53;;;;;;;0.50;0.50;;;-2.30;84.60;;;;;;5073977;28;20176;-69
2021/12/21 08:04:22;;;;;;;0.50;0.50;;;-2.30;83.60;;;;;;5073651;28;20455;-69
2021/12/21 08:06:49;;;;;;;0.40;0.40;;;-2.40;83.00;;;;;;5073788;28;20475;-69
2021/12/21 08:09:15;;;;;;;0.50;0.50;;;-2.40;83.40;;;;;;5073774;28;20169;-68
2021/12/21 08:14:07;;;;;;;0.60;0.60;;;-2.20;83.10;;;;;;5073937;28;20251;-68
2021/12/21 08:16:33;;;;;;;0.40;0.40;;;-1.90;83.30;;;;;;5073909;28;20917;-69
2021/12/21 08:18:59;;;;;;;0.40;0.40;;;-1.00;82.50;;;;;;5073478;28;20506;-69
2021/12/21 08:21:26;;;;;;;0.40;0.40;;;0.00;78.70;;;;;;5073898;28;20308;-69
2021/12/21 08:23:52;;;;;;;0.40;0.40;;;1.30;74.10;;;;;;5073436;28;20488;-69
2021/12/21 08:26:18;;;;;;;0.30;0.30;;;2.70;68.70;;;;;;5073751;28;20197;-69
2021/12/21 08:28:44;;;;;;;0.40;0.40;;;4.10;62.90;;;;;;5073544;28;20684;-69
2021/12/21 08:31:13;;;;;;;0.30;0.30;;;4.80;58.00;;;;;;5073766;28;20281;-69
2021/12/21 08:33:40;;;;;;;0.30;0.30;;;4.80;55.90;;;;;;5072492;28;20577;-69
2021/12/21 08:36:07;;;;;;;0.40;0.40;;;4.90;55.60;;;;;;5073722;28;20172;-69
2021/12/21 08:38:36;;;;;;;0.32;0.32;;;5.20;54.70;;;;;;5073303;28;20176;-69
2021/12/21 08:41:02;;;;;;;0.30;0.30;;;5.30;53.50;;;;;;5073510;28;20172;-69
2021/12/21 08:43:29;;;;;;;0.40;0.40;;;5.50;52.90;;;;;;5073424;28;20196;-69
2021/12/21 08:45:56;;;;;;;0.50;0.50;;;6.50;52.40;;;;;;5073308;28;20535;-69
2021/12/21 08:48:23;;;;;;;0.30;0.30;;;7.20;49.90;;;;;;5073262;28;20219;-70
2021/12/21 08:50:50;;;;;;;0.40;0.40;;;7.70;48.60;;;;;;5073377;28;20564;-69
2021/12/21 08:53:17;;;;;;;0.30;0.30;;;8.30;47.00;;;;;;5073204;28;20197;-69
2021/12/21 08:55:43;;;;;;;0.40;0.40;;;8.70;45.90;;;;;;5073383;28;20181;-69
2021/12/21 08:58:10;;;;;;;0.40;0.40;;;8.80;44.10;;;;;;5073198;28;20173;-69
2021/12/21 09:00:37;;;;;;;0.40;0.40;;;9.30;42.70;;;;;;5072992;28;20190;-69
2021/12/21 09:03:03;;;;;;;1.77;1.67;;;10.00;41.00;;;;;;5071759;28;20200;-69
2021/12/21 09:05:31;;;;;;;0.40;0.40;;;10.70;38.90;;;;;;5073355;28;20181;-69
2021/12/21 09:07:57;;;;;;;0.30;0.30;;;10.70;37.90;;;;;;5073231;28;20216;-69
2021/12/21 09:10:24;;;;;;;0.30;0.30;;;11.40;38.10;;;;;;5073232;28;20177;-67
2021/12/21 09:12:51;;;;;;;0.50;0.50;;;11.70;35.60;;;;;;5073067;28;20196;-67
2021/12/21 09:15:19;;;;;;;0.32;0.32;;;11.70;34.10;;;;;;5073005;28;20191;-66
2021/12/21 09:17:45;;;;;;;0.30;0.30;;;11.70;33.90;;;;;;5072997;28;20181;-67
2021/12/21 09:20:13;;;;;;;0.30;0.30;;;12.50;33.90;;;;;;5072949;28;20178;-67
2021/12/21 09:22:39;;;;;;;0.30;0.30;;;12.90;33.00;;;;;;5073188;28;20197;-67
2021/12/21 09:25:07;;;;;;;0.30;0.30;;;13.40;31.90;;;;;;5072918;28;20200;-67
2021/12/21 09:27:33;;;;;;;0.38;0.38;;;13.70;32.80;;;;;;5073123;28;20206;-67
2021/12/21 09:29:58;;;;;;;0.30;0.30;;;13.70;30.90;;;;;;5072728;28;20209;-67
2021/12/21 09:32:25;;;;;;;0.30;0.30;;;13.80;32.00;;;;;;5072901;28;20225;-67
2021/12/21 09:34:51;;;;;;;0.30;0.30;;;14.50;32.20;;;;;;5073218;28;20412;-67
2021/12/21 09:37:20;;;;;;;0.40;0.40;;;14.40;30.50;;;;;;5073129;28;20831;-67
2021/12/21 09:39:49;;;;;;;0.30;0.30;;;14.50;30.40;;;;;;5072903;28;20174;-67
2021/12/21 09:42:22;;;;;;;0.40;0.40;;;14.90;29.50;;;;;;5072950;28;20217;-67
2021/12/21 09:44:49;;;;;;;0.30;0.30;;;15.10;30.80;;;;;;5073439;28;20454;-67
2021/12/21 09:47:15;;;;;;;0.30;0.30;;;15.70;29.80;;;;;;5076463;28;20399;-67
2021/12/21 09:49:42;;;;;;;0.30;0.30;;;14.70;28.20;;;;;;5076201;28;20520;-67
2021/12/21 09:52:10;;;;;;;0.50;0.50;;;13.90;29.30;;;;;;5076409;28;20420;-67
2021/12/21 09:54:37;;;;;;;0.50;0.50;;;12.20;29.70;;;;;;5076273;28;20184;-67
2021/12/21 09:57:03;;;;;;;0.57;0.57;;;12.00;30.40;;;;;;5076257;28;20174;-67
2021/12/21 09:59:29;;;;;;;0.40;0.40;;;11.70;29.90;;;;;;5075988;28;20526;-67
2021/12/21 10:01:57;;;;;;;0.30;0.30;;;11.70;30.40;;;;;;5076333;28;20252;-67
2021/12/21 10:04:27;;;;;;;0.40;0.40;;;12.20;30.80;;;;;;5074793;28;20986;-67
2021/12/21 10:06:54;;;;;;;0.30;0.30;;;12.70;30.50;;;;;;5076223;28;20174;-67
2021/12/21 10:09:24;;;;;;;0.30;0.30;;;12.70;29.30;;;;;;5075845;28;20923;-67
2021/12/21 10:11:50;;;;;;;0.50;0.50;;;12.80;29.60;;;;;;5076162;28;20180;-67
2021/12/21 10:14:18;;;;;;;0.40;0.40;;;13.50;29.20;;;;;;5075974;28;20170;-67
2021/12/21 10:16:47;;;;;;;0.30;0.30;;;13.10;28.60;;;;;;5076185;28;20620;-67
2021/12/21 10:19:23;;;;;;;0.30;0.30;;;13.30;29.10;;;;;;5075751;28;20174;-67
2021/12/21 10:21:49;;;;;;;0.30;0.30;;;12.90;29.10;;;;;;5075940;28;20235;-67
2021/12/21 10:24:25;;;;;;;0.30;0.30;;;12.80;29.40;;;;;;5075737;28;20196;-67
2021/12/21 10:26:53;;;;;;;0.40;0.40;;;13.40;30.00;;;;;;5076003;28;20396;-67
2021/12/21 10:29:19;;;;;;;0.30;0.30;;;13.30;30.60;;;;;;5075664;28;20184;-67
2021/12/21 10:31:48;;;;;;;0.30;0.30;;;12.90;31.60;;;;;;5075831;28;20161;-67
2021/12/21 10:34:16;;;;;;;0.52;0.52;;;12.70;30.70;;;;;;5075590;28;20412;-67
2021/12/21 10:36:49;;;;;;;0.40;0.40;;;12.50;29.70;;;;;;5075792;28;20277;-67
2021/12/21 10:39:31;;;;;;;0.60;0.60;;;11.80;30.80;;;;;;5075343;28;20256;-68
2021/12/21 10:42:01;;;;;;;0.30;0.30;;;11.50;31.80;;;;;;5075564;28;20280;-67
2021/12/21 10:44:27;;;;;;;0.30;0.30;;;11.90;33.40;;;;;;5075364;28;20205;-67
2021/12/21 10:46:54;;;;;;;0.40;0.40;;;11.60;31.30;;;;;;5075561;28;20222;-67
2021/12/21 10:49:21;;;;;;;0.32;0.32;;;11.50;32.00;;;;;;5075149;28;20166;-67
2021/12/21 10:51:58;;;;;;;0.30;0.30;;;11.80;33.10;;;;;;5075334;28;20169;-67
2021/12/21 10:54:32;;;;;;;0.30;0.30;;;12.10;31.60;;;;;;5075475;28;20160;-67
2021/12/21 10:57:33;;;;;;;0.30;0.30;;;12.00;31.60;;;;;;5074440;28;20177;-68
2021/12/21 11:00:02;;;;;;;0.40;0.40;;;11.90;33.30;;;;;;5075001;28;20223;-67
2021/12/21 11:02:32;;;;;;;0.30;0.30;;;11.40;32.40;;;;;;5075083;28;20200;-67
2021/12/21 11:05:10;;;;;;;0.40;0.40;;;10.80;33.60;;;;;;5074891;28;20563;-67
2021/12/21 11:08:03;;;;;;;0.40;0.40;;;10.20;33.10;;;;;;5075148;28;20639;-67
2021/12/21 11:10:34;;;;;;;1.15;1.15;;;9.60;36.70;;;;;;5075258;28;20600;-67
2021/12/21 11:13:10;;;;;;;0.40;0.40;;;9.20;37.50;;;;;;5075047;28;20211;-67
2021/12/21 11:15:52;;;;;;;0.30;0.30;;;9.00;36.80;;;;;;5074905;28;20181;-67
2021/12/21 11:18:20;;;;;;;0.30;0.30;;;8.50;36.30;;;;;;5074783;28;20154;-67
2021/12/21 11:20:48;;;;;;;0.80;0.80;;;8.20;38.00;;;;;;5074695;28;20627;-67
2021/12/21 11:23:16;;;;;;;0.40;0.40;;;7.70;38.90;;;;;;5074473;28;20272;-67
2021/12/21 11:25:44;;;;;;;0.40;0.40;;;7.50;39.00;;;;;;5074586;28;20213;-67
2021/12/21 11:28:15;;;;;;;0.40;0.40;;;7.50;38.50;;;;;;5074573;28;20535;-67
2021/12/21 11:30:42;;;;;;;0.40;0.40;;;7.20;38.20;;;;;;5074657;28;20248;-67
2021/12/21 11:33:09;;;;;;;0.40;0.40;;;6.50;35.60;;;;;;5074555;28;20194;-67
2021/12/21 11:38:08;;;;;;;0.40;0.40;;;5.60;38.20;;;;;;5074403;28;20199;-67
2021/12/21 11:40:38;;;;;;;0.50;0.50;;;5.20;37.50;;;;;;5074493;28;20836;-67
2021/12/21 11:43:27;;;;;;;0.40;0.40;;;5.00;37.30;;;;;;5074158;28;20189;-66
2021/12/21 11:46:11;;;;;;;0.40;0.40;;;4.80;36.10;;;;;;5074462;28;20252;-66
2021/12/21 11:48:54;;;;;;;0.40;0.40;;;4.60;36.10;;;;;;5074036;28;20180;-67
2021/12/21 11:51:25;;;;;;;0.40;0.40;;;4.40;36.60;;;;;;5074210;28;20169;-67
2021/12/21 11:53:53;;;;;;;0.40;0.40;;;4.30;36.90;;;;;;5073979;28;20569;-67
2021/12/21 11:56:22;;;;;;;0.30;0.30;;;4.20;38.00;;;;;;5074041;28;20255;-66
2021/12/21 11:58:51;;;;;;;0.38;0.38;;;4.10;38.50;;;;;;5073579;28;20312;-67
2021/12/21 12:01:34;;;;;;;0.60;0.60;;;4.10;38.70;;;;;;5074278;28;20533;-67
2021/12/21 12:04:04;;;;;;;0.30;0.30;;;3.90;39.40;;;;;;5073912;28;20204;-67
2021/12/21 12:06:52;;;;;;;0.40;0.40;;;3.30;38.60;;;;;;5074279;28;20271;-66
2021/12/21 12:09:30;;;;;;;0.40;0.40;;;3.30;39.50;;;;;;5073685;28;20235;-67
2021/12/21 12:12:14;;;;;;;0.40;0.40;;;3.40;39.90;;;;;;5073825;28;20249;-67
2021/12/21 12:14:42;;;;;;;0.35;0.35;;;3.60;39.60;;;;;;5073706;28;20207;-67
2021/12/21 12:17:22;;;;;;;0.40;0.40;;;3.80;40.30;;;;;;5073689;28;20222;-66
2021/12/21 12:20:05;;;;;;;0.38;0.38;;;3.90;41.40;;;;;;5073731;28;20177;-67
2021/12/21 12:22:35;;;;;;;0.40;0.40;;;3.90;43.00;;;;;;5073512;28;20185;-68
2021/12/21 12:25:01;;;;;;;0.30;0.30;;;3.60;42.20;;;;;;5073463;28;20251;-69
2021/12/21 12:27:29;;;;;;;0.40;0.40;;;3.50;44.90;;;;;;5073854;28;20161;-69
2021/12/21 12:29:55;;;;;;;0.38;0.38;;;3.40;46.80;;;;;;5073453;28;20409;-69
2021/12/21 12:33:00;;;;;;;0.40;0.40;;;2.90;46.80;;;;;;5073571;28;20192;-69
2021/12/21 12:35:29;;;;;;;0.40;0.40;;;2.70;48.80;;;;;;5073179;28;20191;-69
2021/12/21 12:38:01;;;;;;;0.32;0.32;;;2.50;48.60;;;;;;5073533;28;20173;-69
2021/12/21 12:40:30;;;;;;;0.40;0.40;;;2.40;48.10;;;;;;5073630;28;20642;-69
2021/12/21 12:43:05;;;;;;;0.40;0.40;;;2.20;50.50;;;;;;5073362;28;20682;-69
2021/12/21 12:45:40;;;;;;;0.40;0.40;;;2.40;51.70;;;;;;5073356;28;20157;-69
2021/12/21 12:48:24;;;;;;;0.30;0.30;;;2.40;51.90;;;;;;5073443;28;20164;-69
2021/12/21 12:50:52;;;;;;;0.30;0.30;;;2.60;53.10;;;;;;5073374;28;20694;-68
2021/12/21 12:53:18;;;;;;;0.30;0.30;;;2.60;53.60;;;;;;5073187;28;20282;-69
2021/12/21 12:55:57;;;;;;;0.40;0.40;;;2.60;54.30;;;;;;5073312;28;20176;-69
2021/12/21 12:58:25;;;;;;;0.30;0.30;;;2.70;54.40;;;;;;5073159;28;20691;-69
2021/12/21 13:01:02;;;;;;;0.40;0.40;;;2.50;55.50;;;;;;5073193;28;20619;-69
2021/12/21 13:03:35;;;;;;;0.40;0.40;;;2.30;55.70;;;;;;5073110;28;20607;-69
2021/12/21 13:06:07;;;;;;;0.30;0.30;;;2.30;56.70;;;;;;5073448;28;20172;-69
2021/12/21 13:08:32;;;;;;;0.32;0.32;;;2.10;57.20;;;;;;5073135;28;20262;-69
2021/12/21 13:10:59;;;;;;;0.40;0.40;;;1.90;58.10;;;;;;5073101;28;20254;-69
2021/12/21 13:13:40;;;;;;;0.40;0.40;;;2.00;58.80;;;;;;5072952;28;20210;-69
2021/12/21 13:16:08;;;;;;;0.30;0.30;;;2.00;59.30;;;;;;5073136;28;20171;-69
2021/12/21 13:18:49;;;;;;;0.30;0.30;;;2.10;59.60;;;;;;5073023;28;20181;-69
2021/12/21 13:21:35;;;;;;;0.40;0.40;;;2.20;59.70;;;;;;5075880;28;20232;-69
2021/12/21 13:24:09;;;;;;;0.40;0.40;;;2.20;60.00;;;;;;5076809;28;20202;-69
2021/12/21 13:26:37;;;;;;;0.40;0.40;;;2.10;61.30;;;;;;5077039;28;20193;-69
2021/12/21 13:29:05;;;;;;;0.40;0.40;;;2.10;62.20;;;;;;5076725;28;20170;-69
2021/12/21 13:31:30;;;;;;;0.40;0.40;;;2.10;63.00;;;;;;5076954;28;20173;-69
2021/12/21 13:33:58;;;;;;;0.40;0.40;;;1.80;63.10;;;;;;5076890;28;20270;-69
2021/12/21 13:36:36;;;;;;;0.30;0.30;;;1.60;63.90;;;;;;5076846;28;20172;-69
2021/12/21 13:39:25;;;;;;;0.40;0.40;;;1.70;64.80;;;;;;5076493;28;20574;-69
2021/12/21 13:42:03;;;;;;;0.30;0.30;;;1.60;65.50;;;;;;5076614;28;20169;-69
2021/12/21 13:44:38;;;;;;;0.40;0.40;;;1.50;66.50;;;;;;5076846;28;20201;-68
2021/12/21 13:47:25;;;;;;;0.40;0.40;;;1.50;67.30;;;;;;5075332;28;20666;-69
2021/12/21 13:50:06;;;;;;;0.30;0.30;;;1.50;67.70;;;;;;5076238;28;20200;-69
2021/12/21 13:52:38;;;;;;;0.30;0.30;;;1.70;68.50;;;;;;5076348;28;20558;-69
2021/12/21 13:55:07;;;;;;;0.30;0.30;;;1.70;68.60;;;;;;5076441;28;20186;-69
2021/12/21 13:57:34;;;;;;;1.33;1.30;;;1.70;68.80;;;;;;5076505;28;20180;-69
2021/12/21 14:00:07;;;;;;;0.40;0.40;;;1.60;69.00;;;;;;5076004;28;20186;-69
2021/12/21 14:02:38;;;;;;;0.40;0.40;;;1.60;69.60;;;;;;5076437;28;20658;-69
2021/12/21 14:05:08;;;;;;;0.40;0.40;;;1.50;70.20;;;;;;5074894;28;20216;-69
2021/12/21 14:07:38;;;;;;;0.30;0.30;;;1.40;71.20;;;;;;5076391;28;20170;-69